METAR Data
IDs: Format: Raw Decoded Include TAF

Data at: 0806 UTC 01 Aug 2021

FAWB 010700Z AUTO 23003KT //// // ////// 13/M00 Q1033